TimeEST,TemperatureF,Dew PointF,Humidity,Sea Level PressureIn,VisibilityMPH,Wind Direction,Wind SpeedMPH,Gust SpeedMPH,PrecipitationIn,Events,Conditions,WindDirDegrees,DateUTC
12:53 AM,61.0,43.0,52,30.17,10.0,ENE,15.0,-,N/A,,Clear,70,2012-11-23 05:53:00
1:53 AM,60.1,44.1,55,30.16,10.0,NE,6.9,-,N/A,,Clear,40,2012-11-23 06:53:00
2:53 AM,59.0,45.0,60,30.16,10.0,NNE,3.5,-,N/A,,Clear,20,2012-11-23 07:53:00
3:53 AM,60.1,45.0,57,30.15,10.0,NE,8.1,-,N/A,,Clear,50,2012-11-23 08:53:00
4:53 AM,59.0,46.0,62,30.15,10.0,NNE,4.6,-,N/A,,Clear,30,2012-11-23 09:53:00
5:53 AM,57.0,46.9,69,30.16,10.0,NNE,5.8,-,N/A,,Clear,30,2012-11-23 10:53:00
6:53 AM,57.0,45.0,64,30.18,10.0,North,4.6,-,N/A,,Clear,360,2012-11-23 11:53:00
7:53 AM,57.9,45.0,62,30.20,10.0,North,6.9,-,N/A,,Clear,350,2012-11-23 12:53:00
8:53 AM,61.0,46.0,58,30.22,10.0,NNE,5.8,-,N/A,,Clear,30,2012-11-23 13:53:00
9:53 AM,64.9,41.0,42,30.23,10.0,NNE,4.6,-,N/A,,Clear,30,2012-11-23 14:53:00
10:53 AM,64.9,44.1,47,30.22,10.0,East,8.1,-,N/A,,Clear,80,2012-11-23 15:53:00
11:53 AM,66.9,43.0,42,30.20,10.0,NE,11.5,-,N/A,,Clear,40,2012-11-23 16:53:00
12:53 PM,69.1,41.0,36,30.16,10.0,NNE,8.1,-,N/A,,Clear,20,2012-11-23 17:53:00
1:53 PM,70.0,43.0,38,30.13,10.0,North,10.4,-,N/A,,Clear,360,2012-11-23 18:53:00
2:53 PM,70.0,43.0,38,30.11,10.0,North,9.2,-,N/A,,Clear,10,2012-11-23 19:53:00
3:53 PM,70.0,42.1,36,30.11,10.0,North,10.4,-,N/A,,Clear,350,2012-11-23 20:53:00
4:53 PM,69.1,42.1,38,30.12,10.0,North,6.9,-,N/A,,Clear,350,2012-11-23 21:53:00
5:53 PM,66.0,43.0,43,30.12,10.0,NNW,6.9,-,N/A,,Clear,330,2012-11-23 22:53:00
6:53 PM,64.0,46.9,54,30.12,10.0,WNW,3.5,-,N/A,,Clear,300,2012-11-23 23:53:00
7:53 PM,64.0,50.0,60,30.13,10.0,West,3.5,-,N/A,,Clear,280,2012-11-24 00:53:00
8:53 PM,63.0,51.1,65,30.13,10.0,West,3.5,-,N/A,,Clear,280,2012-11-24 01:53:00
9:53 PM,63.0,54.0,72,30.13,10.0,Calm,Calm,-,N/A,,Clear,0,2012-11-24 02:53:00
10:53 PM,60.1,53.1,78,30.12,10.0,West,3.5,-,N/A,,Clear,260,2012-11-24 03:53:00
11:53 PM,61.0,55.0,81,30.11,10.0,WSW,3.5,-,N/A,,Clear,250,2012-11-24 04:53:00